Time;durP1;ratioP1;P1;durP2;ratioP2;P2;SDS_P1;SDS_P2;PMS_P1;PMS_P2;Temp;Humidity;BMP_temperature;BMP_pressure;BME280_temperature;BME280_humidity;BME280_pressure;Samples;Min_cycle;Max_cycle;Signal;HPM_P1;HPM_P2
2022/06/07 00:00:21;;;;;;;12.27;8.00;;;;;;;;;;4973335;28;20412;-52
2022/06/07 00:02:47;;;;;;;12.30;8.20;;;;;;;;;;4973444;28;20450;-51
2022/06/07 00:05:13;;;;;;;10.07;9.10;;;;;;;;;;4973445;28;20978;-52
2022/06/07 00:07:40;;;;;;;10.40;8.80;;;;;;;;;;4973430;28;20485;-51
2022/06/07 00:10:06;;;;;;;9.90;8.80;;;;;;;;;;4973442;28;20407;-52
2022/06/07 00:12:33;;;;;;;15.60;9.57;;;;;;;;;;4973329;28;20567;-52
2022/06/07 00:14:59;;;;;;;14.33;9.63;;;;;;;;;;4973236;28;20411;-51
2022/06/07 00:17:25;;;;;;;16.13;11.13;;;;;;;;;;4973159;28;20782;-51
2022/06/07 00:19:50;;;;;;;15.27;7.80;;;;;;;;;;4973086;28;20470;-51
2022/06/07 00:22:17;;;;;;;9.07;8.07;;;;;;;;;;4973058;28;20467;-52
2022/06/07 00:24:42;;;;;;;10.90;8.80;;;;;;;;;;4973052;28;20962;-51
2022/06/07 00:27:09;;;;;;;8.90;8.00;;;;;;;;;;4973224;28;20481;-52
2022/06/07 00:29:35;;;;;;;8.60;7.80;;;;;;;;;;4973044;28;20819;-51
2022/06/07 00:32:01;;;;;;;8.60;7.80;;;;;;;;;;4972928;28;20910;-51
2022/06/07 00:34:28;;;;;;;9.17;8.10;;;;;;;;;;4972969;28;20410;-51
2022/06/07 00:36:54;;;;;;;11.33;9.30;;;;;;;;;;4973039;28;20501;-52
2022/06/07 00:39:20;;;;;;;9.90;8.47;;;;;;;;;;4972880;28;20497;-51
2022/06/07 00:41:46;;;;;;;15.00;8.37;;;;;;;;;;4972915;28;20430;-51
2022/06/07 00:44:31;;;;;;;11.73;9.30;;;;;;;;;;4973101;28;20440;-51
2022/06/07 00:47:02;;;;;;;11.10;9.17;;;;;;;;;;4972642;28;20430;-52
2022/06/07 00:49:34;;;;;;;12.03;9.97;;;;;;;;;;4972656;28;20415;-51
2022/06/07 00:52:00;;;;;;;13.00;9.77;;;;;;;;;;4972666;28;20900;-50
2022/06/07 00:54:28;;;;;;;11.23;9.87;;;;;;;;;;4972503;28;20441;-50
2022/06/07 00:56:55;;;;;;;10.83;9.73;;;;;;;;;;4972122;28;20489;-50
2022/06/07 00:59:21;;;;;;;13.10;10.20;;;;;;;;;;4971617;28;20455;-50
2022/06/07 01:01:47;;;;;;;15.10;10.40;;;;;;;;;;4970620;28;20468;-51
2022/06/07 01:04:13;;;;;;;11.87;9.17;;;;;;;;;;4971522;28;20500;-50
2022/06/07 01:12:10;;;;;;;11.90;8.10;;;;;;;;;;4972664;28;20452;-51
2022/06/07 01:14:36;;;;;;;8.00;7.20;;;;;;;;;;4972499;28;20399;-52
2022/06/07 01:17:02;;;;;;;8.33;7.53;;;;;;;;;;4972507;28;20750;-52
2022/06/07 01:19:27;;;;;;;10.40;8.33;;;;;;;;;;4972571;28;20500;-51
2022/06/07 01:21:53;;;;;;;9.97;8.50;;;;;;;;;;4972264;28;20429;-51
2022/06/07 01:24:19;;;;;;;9.77;7.77;;;;;;;;;;4972260;28;20402;-51
2022/06/07 01:26:45;;;;;;;8.40;7.60;;;;;;;;;;4972166;28;20402;-51
2022/06/07 01:29:12;;;;;;;9.00;8.10;;;;;;;;;;4972608;28;20429;-51
2022/06/07 01:31:38;;;;;;;8.73;7.73;;;;;;;;;;4972081;28;20430;-50
2022/06/07 01:34:04;;;;;;;8.97;8.03;;;;;;;;;;4972411;28;20511;-51
2022/06/07 01:36:31;;;;;;;10.40;7.83;;;;;;;;;;4972083;28;20438;-51
2022/06/07 01:41:54;;;;;;;7.57;6.43;;;;;;;;;;4972407;28;20949;-49
2022/06/07 01:44:20;;;;;;;15.33;7.47;;;;;;;;;;4975818;28;20768;-51
2022/06/07 01:46:46;;;;;;;10.27;7.40;;;;;;;;;;4975492;28;20494;-49
2022/06/07 01:49:13;;;;;;;7.10;6.30;;;;;;;;;;4975766;28;20489;-50
2022/06/07 01:51:40;;;;;;;12.40;6.43;;;;;;;;;;4975656;28;20466;-50
2022/06/07 01:54:06;;;;;;;8.37;7.00;;;;;;;;;;4975672;28;20546;-52
2022/06/07 01:56:32;;;;;;;7.73;6.57;;;;;;;;;;4975370;28;20460;-52
2022/06/07 01:58:58;;;;;;;8.60;7.03;;;;;;;;;;4975368;28;20469;-50
2022/06/07 02:01:24;;;;;;;7.00;6.10;;;;;;;;;;4975308;28;20425;-49
2022/06/07 02:03:50;;;;;;;7.30;6.27;;;;;;;;;;4975489;28;20447;-49
2022/06/07 02:06:16;;;;;;;12.23;7.70;;;;;;;;;;4975229;28;20829;-50
2022/06/07 02:08:42;;;;;;;7.03;6.10;;;;;;;;;;4975228;28;20413;-49
2022/06/07 02:11:10;;;;;;;9.30;6.30;;;;;;;;;;4975261;28;20513;-50
2022/06/07 02:13:36;;;;;;;8.13;6.27;;;;;;;;;;4975292;28;20787;-49
2022/06/07 02:16:03;;;;;;;9.07;6.90;;;;;;;;;;4975017;28;20482;-50
2022/06/07 02:18:29;;;;;;;8.10;5.80;;;;;;;;;;4975457;28;20457;-49
2022/06/07 02:20:57;;;;;;;17.27;7.27;;;;;;;;;;4974932;28;20446;-50
2022/06/07 02:23:23;;;;;;;7.13;6.43;;;;;;;;;;4975249;28;20401;-49
2022/06/07 02:25:54;;;;;;;7.70;6.10;;;;;;;;;;4974805;28;20909;-50
2022/06/07 02:28:21;;;;;;;12.30;6.53;;;;;;;;;;4975080;28;20432;-51
2022/06/07 02:30:47;;;;;;;6.27;5.67;;;;;;;;;;4974672;28;20520;-50
2022/06/07 02:33:13;;;;;;;7.80;5.90;;;;;;;;;;4975010;28;20889;-51
2022/06/07 02:35:41;;;;;;;9.87;6.13;;;;;;;;;;4974830;28;20405;-52
2022/06/07 02:38:08;;;;;;;6.50;5.77;;;;;;;;;;4974684;28;20499;-50
2022/06/07 02:40:34;;;;;;;6.70;6.00;;;;;;;;;;4974960;28;20489;-50
2022/06/07 02:43:01;;;;;;;5.60;4.90;;;;;;;;;;4974838;28;20425;-49
2022/06/07 02:45:27;;;;;;;5.60;5.03;;;;;;;;;;4974492;28;20406;-49
2022/06/07 02:47:53;;;;;;;5.40;4.90;;;;;;;;;;4974695;28;20405;-51
2022/06/07 02:50:20;;;;;;;6.70;5.33;;;;;;;;;;4974630;28;20393;-52
2022/06/07 02:52:46;;;;;;;5.40;4.77;;;;;;;;;;4974607;28;20410;-52
2022/06/07 02:55:12;;;;;;;5.30;4.80;;;;;;;;;;4973502;28;20429;-50
2022/06/07 02:57:38;;;;;;;4.80;4.30;;;;;;;;;;4974087;28;20420;-51
2022/06/07 03:00:08;;;;;;;5.50;5.00;;;;;;;;;;4974312;28;20429;-52
2022/06/07 03:02:34;;;;;;;5.53;4.80;;;;;;;;;;4974437;28;20465;-49
2022/06/07 03:05:00;;;;;;;10.00;4.57;;;;;;;;;;4974503;28;20437;-49
2022/06/07 03:07:26;;;;;;;4.50;3.83;;;;;;;;;;4973990;28;20403;-50
2022/06/07 03:09:52;;;;;;;7.03;4.50;;;;;;;;;;4974216;28;20794;-49
2022/06/07 03:12:18;;;;;;;5.07;4.40;;;;;;;;;;4973997;28;20429;-50
2022/06/07 03:14:44;;;;;;;6.40;4.77;;;;;;;;;;4974208;28;20500;-52
2022/06/07 03:17:10;;;;;;;4.30;3.90;;;;;;;;;;4974375;28;20496;-51
2022/06/07 03:19:36;;;;;;;6.53;4.13;;;;;;;;;;4974315;28;20806;-50
2022/06/07 03:22:02;;;;;;;5.87;4.17;;;;;;;;;;4974404;28;20426;-51
2022/06/07 03:24:28;;;;;;;5.20;4.83;;;;;;;;;;4974288;28;20398;-52
2022/06/07 03:26:54;;;;;;;3.93;3.63;;;;;;;;;;4973827;28;20399;-50
2022/06/07 03:29:20;;;;;;;9.67;4.30;;;;;;;;;;4974154;28;20410;-52
2022/06/07 03:31:46;;;;;;;4.20;3.80;;;;;;;;;;4973869;28;20503;-52
2022/06/07 03:34:12;;;;;;;4.67;4.27;;;;;;;;;;4974361;28;20839;-51
2022/06/07 03:36:38;;;;;;;3.80;3.50;;;;;;;;;;4973693;28;20415;-52
2022/06/07 03:39:07;;;;;;;4.50;3.77;;;;;;;;;;4973824;28;20547;-51
2022/06/07 03:41:33;;;;;;;10.83;3.53;;;;;;;;;;4973925;28;20517;-51
2022/06/07 03:43:59;;;;;;;4.33;3.53;;;;;;;;;;4973783;28;20397;-51
2022/06/07 03:46:26;;;;;;;6.03;4.00;;;;;;;;;;4973551;28;20401;-51
2022/06/07 03:48:52;;;;;;;10.40;4.30;;;;;;;;;;4973538;28;20444;-51
2022/06/07 03:51:19;;;;;;;5.60;3.27;;;;;;;;;;4973418;28;20454;-52
2022/06/07 03:53:46;;;;;;;3.47;3.17;;;;;;;;;;4973570;28;20802;-52
2022/06/07 03:56:13;;;;;;;4.67;4.10;;;;;;;;;;4973450;28;20832;-51
2022/06/07 03:58:39;;;;;;;7.23;4.00;;;;;;;;;;4973207;28;20460;-52
2022/06/07 04:01:06;;;;;;;3.90;3.17;;;;;;;;;;4973353;28;20844;-51
2022/06/07 04:03:32;;;;;;;11.17;3.80;;;;;;;;;;4973796;28;20415;-51
2022/06/07 04:05:58;;;;;;;4.13;3.20;;;;;;;;;;4973063;28;20402;-51
2022/06/07 04:08:25;;;;;;;4.30;3.50;;;;;;;;;;4973083;28;20410;-51
2022/06/07 04:10:53;;;;;;;3.30;3.10;;;;;;;;;;4972747;28;20423;-50
2022/06/07 04:13:19;;;;;;;4.27;3.83;;;;;;;;;;4973301;28;20416;-49
2022/06/07 04:15:46;;;;;;;3.53;3.33;;;;;;;;;;4973100;28;20425;-51
2022/06/07 04:18:12;;;;;;;4.67;3.57;;;;;;;;;;4972905;28;20512;-51
2022/06/07 04:20:38;;;;;;;4.10;3.50;;;;;;;;;;4972748;28;20402;-51
2022/06/07 04:23:05;;;;;;;5.10;3.40;;;;;;;;;;4973109;28;20512;-50
2022/06/07 04:25:33;;;;;;;3.73;3.33;;;;;;;;;;4972969;28;20414;-50
2022/06/07 04:27:59;;;;;;;3.90;3.47;;;;;;;;;;4972821;28;20413;-49
2022/06/07 04:30:25;;;;;;;6.43;3.30;;;;;;;;;;4972706;28;20418;-51
2022/06/07 04:32:51;;;;;;;5.73;3.37;;;;;;;;;;4972494;28;20426;-50
2022/06/07 04:35:18;;;;;;;3.43;2.67;;;;;;;;;;4973148;28;20502;-51
2022/06/07 04:37:47;;;;;;;3.60;3.10;;;;;;;;;;4972585;28;20941;-50
2022/06/07 04:40:13;;;;;;;4.43;3.20;;;;;;;;;;4973049;28;20835;-51
2022/06/07 04:42:41;;;;;;;5.57;2.87;;;;;;;;;;4972764;28;20615;-52
2022/06/07 04:45:09;;;;;;;4.93;3.43;;;;;;;;;;4973123;28;20397;-49
2022/06/07 04:47:35;;;;;;;3.97;2.80;;;;;;;;;;4972429;28;20417;-50
2022/06/07 04:50:01;;;;;;;3.17;2.83;;;;;;;;;;4972789;28;20898;-49
2022/06/07 04:52:27;;;;;;;5.30;3.00;;;;;;;;;;4972461;28;20433;-50
2022/06/07 04:54:53;;;;;;;4.50;3.17;;;;;;;;;;4972723;28;20431;-52
2022/06/07 04:57:19;;;;;;;4.13;3.60;;;;;;;;;;4972670;28;20417;-50
2022/06/07 04:59:46;;;;;;;7.90;2.90;;;;;;;;;;4972435;28;20428;-51
2022/06/07 05:02:12;;;;;;;4.73;3.20;;;;;;;;;;4973134;28;20432;-51
2022/06/07 05:04:38;;;;;;;3.23;2.93;;;;;;;;;;4972603;28;20463;-52
2022/06/07 05:07:04;;;;;;;3.13;2.70;;;;;;;;;;4972622;28;20471;-51
2022/06/07 05:09:30;;;;;;;5.93;2.53;;;;;;;;;;4972731;28;20500;-52
2022/06/07 05:11:56;;;;;;;5.43;3.13;;;;;;;;;;4972495;28;20430;-51
2022/06/07 05:14:23;;;;;;;4.30;2.80;;;;;;;;;;4972596;28;20412;-50
2022/06/07 05:16:49;;;;;;;4.80;2.43;;;;;;;;;;4972553;28;20408;-50
2022/06/07 05:19:15;;;;;;;7.53;3.50;;;;;;;;;;4976094;28;20467;-51
2022/06/07 05:21:42;;;;;;;3.27;3.07;;;;;;;;;;4976230;28;20423;-50
2022/06/07 05:24:08;;;;;;;4.20;3.07;;;;;;;;;;4976290;28;20396;-52
2022/06/07 05:26:38;;;;;;;6.00;2.50;;;;;;;;;;4976472;28;20415;-52
2022/06/07 05:29:04;;;;;;;3.27;2.50;;;;;;;;;;4976089;28;20412;-51
2022/06/07 05:31:31;;;;;;;3.80;2.80;;;;;;;;;;4976061;28;20431;-52
2022/06/07 05:33:58;;;;;;;4.83;2.57;;;;;;;;;;4976138;28;20415;-51
2022/06/07 05:36:24;;;;;;;3.33;2.43;;;;;;;;;;4975859;28;20462;-51
2022/06/07 05:38:50;;;;;;;4.10;2.97;;;;;;;;;;4975698;28;20452;-52
2022/06/07 05:41:21;;;;;;;5.03;2.90;;;;;;;;;;4975935;28;20456;-50
2022/06/07 05:43:47;;;;;;;3.13;2.73;;;;;;;;;;4975919;28;20408;-50
2022/06/07 05:46:13;;;;;;;3.73;2.40;;;;;;;;;;4975764;28;20405;-50
2022/06/07 05:48:39;;;;;;;6.50;2.40;;;;;;;;;;4975475;28;20405;-52
2022/06/07 05:51:05;;;;;;;2.63;2.40;;;;;;;;;;4975637;28;20431;-52
2022/06/07 05:53:31;;;;;;;4.87;2.50;;;;;;;;;;4975995;28;20436;-50
2022/06/07 05:55:57;;;;;;;2.20;2.10;;;;;;;;;;4975559;28;20436;-51
2022/06/07 05:58:25;;;;;;;3.23;2.83;;;;;;;;;;4975570;28;20503;-50
2022/06/07 06:00:50;;;;;;;3.50;2.73;;;;;;;;;;4989683;28;20449;-50
2022/06/07 06:03:16;;;;;;;3.93;2.50;;;;;;;;;;4995082;28;20769;-51
2022/06/07 06:05:46;;;;;;;7.50;2.77;;;;;;;;;;4995333;28;20414;-52
2022/06/07 06:11:09;;;;;;;6.77;2.80;;;;;;;;;;4994635;28;20470;-51
2022/06/07 06:13:35;;;;;;;5.63;2.60;;;;;;;;;;4995023;28;20378;-50
2022/06/07 06:16:05;;;;;;;3.37;2.60;;;;;;;;;;4994968;28;20408;-51
2022/06/07 06:18:32;;;;;;;6.10;2.70;;;;;;;;;;4995772;28;20452;-51
2022/06/07 06:20:58;;;;;;;3.00;2.47;;;;;;;;;;4994867;28;20511;-52
2022/06/07 06:23:24;;;;;;;6.00;2.40;;;;;;;;;;4995456;28;20466;-52
2022/06/07 06:25:51;;;;;;;5.53;2.60;;;;;;;;;;4995106;28;20408;-52
2022/06/07 06:28:17;;;;;;;2.77;2.53;;;;;;;;;;4994944;28;20404;-50
2022/06/07 06:30:44;;;;;;;2.87;2.63;;;;;;;;;;4994006;28;20410;-50
2022/06/07 06:33:12;;;;;;;4.17;2.20;;;;;;;;;;4995651;28;20415;-51
2022/06/07 06:35:38;;;;;;;6.70;2.80;;;;;;;;;;4996100;28;20379;-52
2022/06/07 06:38:04;;;;;;;3.70;2.60;;;;;;;;;;4995749;28;20439;-52
2022/06/07 06:40:30;;;;;;;4.20;2.90;;;;;;;;;;4994586;28;20375;-51
2022/06/07 06:42:56;;;;;;;4.50;2.43;;;;;;;;;;4994453;28;20425;-50
2022/06/07 06:45:22;;;;;;;2.53;2.33;;;;;;;;;;4994703;28;20420;-50
2022/06/07 06:47:48;;;;;;;2.90;2.07;;;;;;;;;;4994027;28;20431;-50
2022/06/07 06:50:14;;;;;;;6.80;2.40;;;;;;;;;;4994480;28;20852;-52
2022/06/07 06:52:40;;;;;;;2.30;2.10;;;;;;;;;;4994659;28;20886;-53
2022/06/07 06:55:06;;;;;;;4.43;2.20;;;;;;;;;;4995028;28;20408;-52
2022/06/07 06:57:33;;;;;;;3.30;2.80;;;;;;;;;;4994070;28;20409;-52
2022/06/07 06:59:58;;;;;;;3.30;2.10;;;;;;;;;;4993719;28;20430;-50
2022/06/07 07:02:24;;;;;;;2.70;2.43;;;;;;;;;;4993804;28;20427;-50
2022/06/07 07:04:50;;;;;;;4.87;2.37;;;;;;;;;;4994058;28;20400;-51
2022/06/07 07:07:16;;;;;;;6.33;2.47;;;;;;;;;;4993798;28;20397;-52
2022/06/07 07:09:42;;;;;;;4.40;2.27;;;;;;;;;;4993875;28;20876;-52
2022/06/07 07:12:10;;;;;;;6.73;2.70;;;;;;;;;;4994352;28;20431;-52
2022/06/07 07:14:36;;;;;;;4.27;2.10;;;;;;;;;;4993895;28;20383;-51
2022/06/07 07:17:02;;;;;;;5.53;2.47;;;;;;;;;;4993884;28;20386;-51
2022/06/07 07:19:28;;;;;;;4.00;2.20;;;;;;;;;;4993595;28;20434;-52
2022/06/07 07:21:54;;;;;;;2.60;2.40;;;;;;;;;;4994571;28;20402;-51
2022/06/07 07:24:21;;;;;;;2.90;2.70;;;;;;;;;;4993975;28;20413;-51
2022/06/07 07:26:47;;;;;;;2.27;2.17;;;;;;;;;;4993238;28;20401;-50
2022/06/07 07:29:14;;;;;;;5.43;2.50;;;;;;;;;;4978552;28;20432;-51
2022/06/07 07:31:40;;;;;;;2.40;2.00;;;;;;;;;;4973427;28;20438;-51
2022/06/07 07:34:08;;;;;;;3.23;2.30;;;;;;;;;;4971522;28;20393;-51
2022/06/07 07:36:35;;;;;;;2.43;2.10;;;;;;;;;;4973591;28;20874;-50
2022/06/07 07:39:01;;;;;;;1.93;1.80;;;;;;;;;;4973414;28;20476;-51
2022/06/07 07:41:31;;;;;;;2.80;2.00;;;;;;;;;;4972592;28;20965;-52
2022/06/07 07:43:58;;;;;;;3.63;2.17;;;;;;;;;;4973774;28;20497;-52
2022/06/07 07:46:25;;;;;;;3.23;1.90;;;;;;;;;;4973383;28;20407;-50
2022/06/07 07:48:51;;;;;;;2.17;1.97;;;;;;;;;;4973340;28;20404;-52
2022/06/07 07:51:20;;;;;;;1.80;1.50;;;;;;;;;;4972895;28;20483;-51
2022/06/07 07:53:45;;;;;;;3.27;1.90;;;;;;;;;;4973309;28;20820;-52
2022/06/07 07:56:11;;;;;;;6.57;2.60;;;;;;;;;;4972997;28;20390;-50
2022/06/07 07:58:37;;;;;;;2.60;2.40;;;;;;;;;;4973240;28;20439;-52
2022/06/07 08:01:08;;;;;;;2.57;2.20;;;;;;;;;;4972775;28;20503;-52
2022/06/07 08:03:36;;;;;;;4.03;1.67;;;;;;;;;;4971773;28;20421;-53
2022/06/07 08:06:03;;;;;;;2.43;1.90;;;;;;;;;;4971929;28;20413;-52
2022/06/07 08:08:29;;;;;;;4.33;2.37;;;;;;;;;;4972825;28;20425;-51
2022/06/07 08:10:55;;;;;;;2.60;1.90;;;;;;;;;;4972689;28;20758;-52
2022/06/07 08:13:21;;;;;;;3.87;2.00;;;;;;;;;;4976103;28;20429;-52
2022/06/07 08:15:47;;;;;;;3.13;1.90;;;;;;;;;;4992615;28;20401;-52
2022/06/07 08:18:13;;;;;;;4.60;2.07;;;;;;;;;;4973475;28;20507;-52
2022/06/07 08:20:39;;;;;;;3.23;1.80;;;;;;;;;;4972608;28;20451;-53
2022/06/07 08:23:07;;;;;;;3.80;2.00;;;;;;;;;;4972524;28;21371;-52
2022/06/07 08:25:33;;;;;;;3.73;1.93;;;;;;;;;;4972951;28;20456;-52
2022/06/07 08:27:59;;;;;;;4.27;1.53;;;;;;;;;;4972370;28;20416;-53
2022/06/07 08:30:25;;;;;;;3.00;1.50;;;;;;;;;;4971945;28;20431;-52
2022/06/07 08:32:51;;;;;;;1.50;1.40;;;;;;;;;;4974814;28;20447;-52
2022/06/07 08:38:03;;;;;;;3.10;1.60;;;;;;;;;;4966377;28;20549;-53
2022/06/07 08:40:43;;;;;;;1.50;1.40;;;;;;;;;;4971546;28;20420;-51
2022/06/07 08:43:15;;;;;;;4.40;1.60;;;;;;;;;;4972117;28;20475;-51
2022/06/07 08:45:42;;;;;;;3.33;1.70;;;;;;;;;;4971879;28;20428;-53
2022/06/07 08:48:08;;;;;;;2.47;1.50;;;;;;;;;;4971751;28;20428;-52
2022/06/07 08:50:39;;;;;;;1.63;1.43;;;;;;;;;;4972130;28;20412;-53
2022/06/07 08:53:13;;;;;;;2.30;1.60;;;;;;;;;;4974566;28;20771;-53
2022/06/07 08:55:49;;;;;;;3.70;1.17;;;;;;;;;;4976153;28;20427;-53
2022/06/07 08:58:20;;;;;;;2.53;1.90;;;;;;;;;;4974742;28;20466;-53
2022/06/07 09:00:49;;;;;;;2.20;1.60;;;;;;;;;;4973433;28;20441;-53
2022/06/07 09:03:35;;;;;;;1.60;1.50;;;;;;;;;;4975478;28;20448;-53
2022/06/07 09:06:03;;;;;;;3.13;1.50;;;;;;;;;;4969276;28;20448;-53
2022/06/07 09:08:49;;;;;;;2.20;1.50;;;;;;;;;;4976207;28;20421;-53
2022/06/07 09:14:06;;;;;;;4.53;1.43;;;;;;;;;;4988401;28;20969;-52
2022/06/07 09:16:39;;;;;;;1.70;1.57;;;;;;;;;;4986245;28;20760;-53
2022/06/07 09:19:15;;;;;;;2.43;2.10;;;;;;;;;;4974572;28;20456;-52
2022/06/07 09:21:43;;;;;;;5.90;1.97;;;;;;;;;;4975363;28;20435;-52
2022/06/07 09:24:24;;;;;;;3.03;1.20;;;;;;;;;;4975952;28;20421;-51
2022/06/07 09:26:50;;;;;;;2.17;1.60;;;;;;;;;;4975116;28;20862;-51
2022/06/07 09:29:18;;;;;;;1.60;1.50;;;;;;;;;;4973712;28;20419;-52
2022/06/07 09:31:45;;;;;;;3.53;1.60;;;;;;;;;;4975917;28;20422;-51
2022/06/07 09:34:20;;;;;;;3.57;1.80;;;;;;;;;;4975999;28;20420;-52
2022/06/07 09:36:50;;;;;;;2.40;1.80;;;;;;;;;;4975749;28;20408;-52
2022/06/07 09:39:20;;;;;;;1.57;1.47;;;;;;;;;;4975380;28;20488;-53
2022/06/07 09:41:53;;;;;;;1.83;1.73;;;;;;;;;;4975490;28;20432;-51
2022/06/07 09:44:23;;;;;;;5.73;1.83;;;;;;;;;;4975298;28;20901;-52
2022/06/07 09:47:00;;;;;;;6.60;1.93;;;;;;;;;;4977082;28;20411;-51
2022/06/07 09:49:35;;;;;;;2.07;1.87;;;;;;;;;;4981467;28;20439;-53
2022/06/07 09:52:04;;;;;;;1.60;1.50;;;;;;;;;;4955471;29;20515;-50
2022/06/07 09:54:30;;;;;;;4.40;1.83;;;;;;;;;;4955572;29;20792;-52
2022/06/07 09:56:56;;;;;;;2.03;1.73;;;;;;;;;;4955472;29;20897;-53
2022/06/07 09:59:42;;;;;;;2.60;2.07;;;;;;;;;;4955963;29;20472;-51
2022/06/07 10:02:08;;;;;;;4.03;2.10;;;;;;;;;;4955688;28;20916;-51
2022/06/07 10:04:54;;;;;;;3.27;1.87;;;;;;;;;;4955143;28;20414;-53
2022/06/07 10:07:23;;;;;;;2.27;2.07;;;;;;;;;;4972363;28;20480;-53
2022/06/07 10:10:03;;;;;;;1.50;1.40;;;;;;;;;;4975075;28;20409;-51
2022/06/07 10:12:30;;;;;;;2.03;1.40;;;;;;;;;;4973616;28;20811;-52
2022/06/07 10:15:00;;;;;;;1.87;1.77;;;;;;;;;;4982628;28;20470;-53
2022/06/07 10:17:26;;;;;;;3.97;1.80;;;;;;;;;;4955699;28;20406;-53
2022/06/07 10:20:22;;;;;;;3.03;1.70;;;;;;;;;;4955618;29;20565;-51
2022/06/07 10:22:51;;;;;;;1.73;1.63;;;;;;;;;;4958238;28;20513;-53
2022/06/07 10:25:37;;;;;;;7.37;2.17;;;;;;;;;;4974752;28;20401;-52
2022/06/07 10:28:12;;;;;;;2.40;1.70;;;;;;;;;;4973361;28;20420;-51
2022/06/07 10:30:44;;;;;;;4.97;2.27;;;;;;;;;;4974059;28;20410;-52
2022/06/07 10:33:28;;;;;;;2.13;1.70;;;;;;;;;;4974695;28;20915;-53
2022/06/07 10:36:01;;;;;;;6.03;2.13;;;;;;;;;;4974247;28;20991;-52
2022/06/07 10:38:30;;;;;;;2.10;1.90;;;;;;;;;;4974958;28;20451;-53
2022/06/07 10:41:08;;;;;;;2.67;1.70;;;;;;;;;;4981588;28;20799;-52
2022/06/07 10:43:42;;;;;;;2.13;1.87;;;;;;;;;;4963755;28;20941;-51
2022/06/07 10:46:11;;;;;;;1.87;1.60;;;;;;;;;;4954830;28;20402;-53
2022/06/07 10:48:55;;;;;;;2.03;1.73;;;;;;;;;;4954258;28;20406;-52
2022/06/07 10:54:12;;;;;;;4.23;1.80;;;;;;;;;;4957048;28;20901;-51
2022/06/07 10:56:41;;;;;;;2.60;1.63;;;;;;;;;;4954177;28;20421;-52
2022/06/07 10:59:13;;;;;;;3.30;1.90;;;;;;;;;;4971142;28;20463;-51
2022/06/07 11:01:45;;;;;;;2.20;1.87;;;;;;;;;;4973221;28;20428;-51
2022/06/07 11:10:11;;;;;;;2.17;1.80;;;;;;;;;;4954638;29;20461;-52
2022/06/07 11:12:43;;;;;;;1.47;1.37;;;;;;;;;;4967844;28;20440;-54
2022/06/07 11:15:15;;;;;;;3.00;1.97;;;;;;;;;;4964237;28;20449;-51
2022/06/07 11:17:50;;;;;;;5.13;1.47;;;;;;;;;;4961163;28;20431;-52
2022/06/07 11:20:27;;;;;;;1.60;1.50;;;;;;;;;;4971745;28;20472;-53
2022/06/07 11:22:55;;;;;;;1.90;1.47;;;;;;;;;;4977232;28;20447;-53
2022/06/07 11:25:41;;;;;;;2.60;1.67;;;;;;;;;;4976698;28;20404;-53
2022/06/07 11:28:10;;;;;;;2.30;2.10;;;;;;;;;;4972825;28;20402;-53
2022/06/07 11:30:37;;;;;;;2.20;1.67;;;;;;;;;;4975369;28;20768;-53
2022/06/07 11:33:06;;;;;;;1.83;1.60;;;;;;;;;;4968554;28;20980;-54
2022/06/07 11:35:54;;;;;;;2.90;1.50;;;;;;;;;;4975130;28;20539;-51
2022/06/07 11:38:22;;;;;;;3.13;1.70;;;;;;;;;;4992673;28;20491;-53
2022/06/07 11:40:51;;;;;;;1.77;1.67;;;;;;;;;;4968307;28;20463;-53
2022/06/07 11:43:35;;;;;;;2.57;1.73;;;;;;;;;;4953915;28;20465;-54
2022/06/07 11:46:01;;;;;;;4.73;1.67;;;;;;;;;;4953614;29;20405;-51
2022/06/07 11:48:36;;;;;;;1.83;1.50;;;;;;;;;;4953752;29;20409;-52
2022/06/07 11:51:13;;;;;;;1.90;1.53;;;;;;;;;;4952850;29;20429;-54
2022/06/07 11:53:50;;;;;;;1.40;1.30;;;;;;;;;;4951830;29;20432;-52
2022/06/07 11:56:29;;;;;;;2.33;1.90;;;;;;;;;;4959008;28;20420;-52
2022/06/07 11:58:57;;;;;;;3.60;2.13;;;;;;;;;;4971334;28;20480;-51
2022/06/07 12:01:44;;;;;;;1.77;1.60;;;;;;;;;;4971274;28;20940;-53
2022/06/07 12:04:28;;;;;;;3.00;1.60;;;;;;;;;;4970998;28;20408;-52
2022/06/07 12:06:58;;;;;;;1.80;1.70;;;;;;;;;;4972220;28;20413;-53
2022/06/07 12:09:24;;;;;;;1.97;1.70;;;;;;;;;;4972480;28;20423;-51
2022/06/07 12:11:50;;;;;;;5.10;2.10;;;;;;;;;;4972613;28;20909;-53
2022/06/07 12:14:45;;;;;;;2.60;1.70;;;;;;;;;;4972945;28;20403;-52
2022/06/07 12:17:30;;;;;;;3.40;1.77;;;;;;;;;;4956436;28;20420;-54
2022/06/07 12:19:57;;;;;;;2.17;1.60;;;;;;;;;;4971133;28;20456;-52
2022/06/07 12:22:24;;;;;;;2.43;2.20;;;;;;;;;;4972400;28;20875;-51
2022/06/07 12:24:55;;;;;;;4.10;3.40;;;;;;;;;;4972497;28;20442;-53
2022/06/07 12:27:45;;;;;;;2.20;1.90;;;;;;;;;;4972481;28;20885;-51
2022/06/07 12:30:31;;;;;;;2.50;1.70;;;;;;;;;;4972435;28;20466;-53
2022/06/07 12:33:11;;;;;;;2.10;1.90;;;;;;;;;;4972255;28;20417;-53
2022/06/07 12:35:38;;;;;;;2.43;1.50;;;;;;;;;;4972229;28;20420;-52
2022/06/07 12:38:04;;;;;;;5.70;1.80;;;;;;;;;;4972122;28;20420;-52
2022/06/07 12:40:45;;;;;;;3.33;1.90;;;;;;;;;;4972457;28;20412;-53
2022/06/07 12:43:25;;;;;;;2.77;1.50;;;;;;;;;;4972640;28;20419;-53
2022/06/07 12:45:55;;;;;;;3.33;1.77;;;;;;;;;;4972461;28;20405;-51
2022/06/07 12:48:21;;;;;;;1.80;1.70;;;;;;;;;;4972017;28;20858;-53
2022/06/07 12:50:47;;;;;;;2.10;2.00;;;;;;;;;;4971434;28;20456;-51
2022/06/07 12:53:19;;;;;;;2.60;1.80;;;;;;;;;;4972248;28;20445;-51
2022/06/07 12:55:52;;;;;;;1.93;1.73;;;;;;;;;;4972114;28;20417;-51
2022/06/07 12:58:19;;;;;;;2.13;1.60;;;;;;;;;;4972315;28;20555;-53
2022/06/07 13:00:46;;;;;;;2.27;1.50;;;;;;;;;;4971990;28;20555;-53
2022/06/07 13:03:28;;;;;;;2.50;1.87;;;;;;;;;;4972043;28;20416;-52
2022/06/07 13:05:59;;;;;;;2.37;2.00;;;;;;;;;;4971997;28;20897;-53
2022/06/07 13:08:26;;;;;;;2.80;1.77;;;;;;;;;;4972260;28;20441;-51
2022/06/07 13:10:53;;;;;;;3.40;2.00;;;;;;;;;;4972529;28;20435;-52
2022/06/07 13:13:24;;;;;;;2.10;2.00;;;;;;;;;;4972478;28;20415;-53
2022/06/07 13:15:56;;;;;;;2.00;1.90;;;;;;;;;;4971291;28;20438;-51
2022/06/07 13:18:31;;;;;;;2.37;2.17;;;;;;;;;;4972116;28;20457;-54
2022/06/07 13:21:13;;;;;;;2.20;2.10;;;;;;;;;;4971768;28;20435;-53
2022/06/07 13:23:40;;;;;;;2.27;2.07;;;;;;;;;;4972254;28;20421;-53
2022/06/07 13:26:11;;;;;;;2.60;2.23;;;;;;;;;;4971421;28;20435;-51
2022/06/07 13:28:37;;;;;;;2.67;2.47;;;;;;;;;;4971951;28;20418;-53
2022/06/07 13:31:03;;;;;;;4.97;2.13;;;;;;;;;;4971796;28;20439;-53
2022/06/07 13:33:34;;;;;;;4.30;2.47;;;;;;;;;;4972441;28;20387;-53
2022/06/07 13:36:20;;;;;;;3.30;2.57;;;;;;;;;;4971527;28;20402;-53
2022/06/07 13:38:46;;;;;;;7.00;3.40;;;;;;;;;;4960066;28;20480;-53
2022/06/07 13:41:18;;;;;;;3.73;3.30;;;;;;;;;;4974080;28;20449;-53
2022/06/07 13:43:53;;;;;;;3.27;2.73;;;;;;;;;;4975453;28;20463;-51
2022/06/07 13:46:34;;;;;;;3.67;2.57;;;;;;;;;;4974601;28;20412;-52
2022/06/07 13:55:36;;;;;;;3.20;3.00;;;;;;;;;;4975007;28;20407;-54
2022/06/07 13:58:02;;;;;;;3.70;3.40;;;;;;;;;;4974839;28;21008;-52
2022/06/07 14:00:28;;;;;;;4.57;3.47;;;;;;;;;;4974336;28;20937;-52
2022/06/07 14:02:55;;;;;;;3.97;3.30;;;;;;;;;;4975252;28;20380;-52
2022/06/07 14:05:28;;;;;;;3.60;3.27;;;;;;;;;;4974496;28;20763;-52
2022/06/07 14:07:55;;;;;;;4.37;3.60;;;;;;;;;;4974933;28;20788;-52
2022/06/07 14:10:21;;;;;;;4.23;3.73;;;;;;;;;;4974576;28;20434;-51
2022/06/07 14:12:48;;;;;;;7.40;3.60;;;;;;;;;;4982845;28;20462;-52
2022/06/07 14:15:14;;;;;;;3.50;3.30;;;;;;;;;;4974566;28;20411;-52
2022/06/07 14:17:42;;;;;;;4.17;3.53;;;;;;;;;;4973885;28;20484;-51
2022/06/07 14:20:13;;;;;;;8.33;3.83;;;;;;;;;;4974421;28;20425;-54
2022/06/07 14:22:39;;;;;;;3.63;3.33;;;;;;;;;;4974546;28;20442;-52
2022/06/07 14:25:08;;;;;;;4.17;3.70;;;;;;;;;;4975015;28;20441;-53
2022/06/07 14:27:34;;;;;;;6.03;3.33;;;;;;;;;;4974179;28;20772;-54
2022/06/07 14:30:00;;;;;;;3.77;3.30;;;;;;;;;;4974213;28;20835;-51
2022/06/07 14:32:31;;;;;;;3.53;3.23;;;;;;;;;;4974001;28;20532;-53
2022/06/07 14:34:57;;;;;;;3.70;3.00;;;;;;;;;;4974743;28;20512;-51
2022/06/07 14:37:25;;;;;;;3.73;3.50;;;;;;;;;;4972671;28;20424;-51
2022/06/07 14:39:51;;;;;;;3.73;3.50;;;;;;;;;;4973724;28;20466;-52
2022/06/07 14:42:17;;;;;;;11.03;4.90;;;;;;;;;;4973915;28;20437;-53
2022/06/07 14:44:44;;;;;;;4.37;3.80;;;;;;;;;;4973871;28;20513;-53
2022/06/07 14:47:16;;;;;;;4.40;4.00;;;;;;;;;;4974260;28;20412;-51
2022/06/07 14:49:42;;;;;;;4.40;4.00;;;;;;;;;;4974040;28;20417;-53
2022/06/07 14:52:12;;;;;;;6.33;4.57;;;;;;;;;;4973638;28;20436;-53
2022/06/07 14:54:38;;;;;;;5.80;4.23;;;;;;;;;;4972589;28;20930;-54
2022/06/07 14:57:19;;;;;;;6.83;5.53;;;;;;;;;;4973879;28;20420;-53
2022/06/07 14:59:46;;;;;;;9.37;5.00;;;;;;;;;;4973585;28;20431;-54
2022/06/07 15:02:15;;;;;;;7.27;5.00;;;;;;;;;;4972629;28;20955;-53
2022/06/07 15:05:01;;;;;;;5.40;4.40;;;;;;;;;;4973909;28;20417;-52
2022/06/07 15:07:29;;;;;;;4.97;4.47;;;;;;;;;;4973200;28;20450;-51
2022/06/07 15:09:55;;;;;;;5.70;5.20;;;;;;;;;;4973472;28;20809;-53
2022/06/07 15:12:21;;;;;;;5.27;4.67;;;;;;;;;;4971364;28;20531;-52
2022/06/07 15:14:48;;;;;;;4.60;4.20;;;;;;;;;;4973501;28;20471;-52
2022/06/07 15:17:18;;;;;;;4.60;4.00;;;;;;;;;;4973591;28;20459;-52
2022/06/07 15:19:45;;;;;;;4.53;4.23;;;;;;;;;;4972902;28;20463;-53
2022/06/07 15:22:13;;;;;;;4.17;3.77;;;;;;;;;;4973703;28;20435;-54